Nearby METAR Reports

 

EGUW - Wattisham Raf, United Kingdom
Distance from station: SW 12mi, 19km
Updated: 09/04/2020 01:50
NOT Current
Haze, Few clouds
Haze, Few clouds
 Wind from E
Wind: E 2 mph , 4 km/h
Temperature: 11°C
Dew Point: 6°C
Humidity: 72%
Barometer: 1024 hPa
Summary: Haze
Clouds: Few Clouds
Visibility: 5 miles , 8 km
Cloud details: Few Clouds 3048 m
2020/04/09 00:50 EGUW 090050Z AUTO 10002KT 8000 HZ FEW100/// 11/06 Q1024
EGUL - Lakenheath Raf, United Kingdom
Distance from station: WNW 29mi, 47km
Updated: 09/04/2020 02:56
Few Clouds
Few Clouds
 Wind from calm
Wind: Calm
Temperature: 7°C
Dew Point: 5°C
Humidity: 87%
Barometer: 1023.7 hPa
Clouds: Few Clouds
Visibility: 6 miles , 10 km
Cloud details: Few Clouds 2896 m
2020/04/09 01:56 EGUL 090156Z AUTO 00000KT 9999 FEW095 07/05 A3023 RMK AO2 SLP240 T00690049 $
 
EGUN - Mildenhall Raf, United Kingdom
Distance from station: WNW 32mi, 51km
Updated: 09/04/2020 02:55
Few Clouds
Few Clouds
 Wind from N
Wind: N 1 mph , 2 km/h
Temperature: 9°C
Dew Point: 5°C
Humidity: 76%
Barometer: 1024 hPa
Clouds: Few Clouds
Visibility: 6 miles , 10 km
Cloud details: Few Clouds 2896 m
2020/04/09 01:55 EGUN 090155Z 35001KT 9999 FEW095 09/05 A3024 RMK AO2A SLP239 WND DATA ESTMD ALSTG/SLP ESTMD RVRNO
EGSH - Norwich Wea Cntr, United Kingdom
Distance from station: N 32mi, 52km
Updated: 09/04/2020 02:50
Clear
Clear
 Wind from calm
Wind: Calm
Temperature: 7°C
Dew Point: 6°C
Humidity: 93%
Barometer: 1024 hPa
Clouds: Clear
Visibility: 4 miles , 7 km
2020/04/09 01:50 EGSH 090150Z AUTO 00000KT 7000 NCD 07/06 Q1024
 
EGYM - Marham Raf, United Kingdom
Distance from station: NW 39mi, 62km
Updated: 09/04/2020 02:50
Mostly cloudy
Mostly cloudy
 Wind from calm
Wind: Calm
Temperature: 8°C
Dew Point: 5°C
Humidity: 82%
Barometer: 1024 hPa
Clouds: Mostly cloudy
Visibility: 6 miles , 10 km
Cloud details: Mostly cloudy 2743 m
2020/04/09 01:50 EGYM 090150Z AUTO 00000KT 9999 BKN090/// 08/05 Q1024
EGSC - Cambridge, United Kingdom
Distance from station: W 43mi, 69km
Updated: 08/04/2020 12:50
NOT Current
Clear
Clear
 Wind from varies
Wind: varies 3 mph , 6 km/h
Temperature: 19°C
Dew Point: 8°C
Humidity: 49%
Barometer: 1025 hPa
Summary: Clear
Visibility: greater than 7 miles , 10 km
2020/04/08 11:50 EGSC 081150Z VRB03KT CAVOK 19/08 Q1025
 
EGSS - Stansted Airport, United Kingdom
Distance from station: WSW 47mi, 76km
Updated: 09/04/2020 02:50
Haze, Clear
Haze, Clear
 Wind from ENE
Wind: ENE 3 mph , 6 km/h
Temperature: 8°C
Dew Point: 6°C
Humidity: 87%
Barometer: 1024 hPa
Summary: Haze
Clouds: Clear
Visibility: 3 miles , 5 km
2020/04/09 01:50 EGSS 090150Z AUTO 06003KT 5000 HZ NCD 08/06 Q1024
EGMC - Southend-On-Sea, United Kingdom
Distance from station: SSW 50mi, 80km
Updated: 09/04/2020 02:50
Mist, Partly cloudy
Mist, Partly cloudy
 Wind from N
Wind: N 2 mph , 4 km/h
Temperature: 6°C
Dew Point: 6°C
Humidity: 100%
Barometer: 1024 hPa
Summary: Mist
Clouds: Partly cloudy
Visibility: 2 miles , 4 km
2020/04/09 01:50 EGMC 090150Z 36002KT 4000 BR NSC 06/06 Q1024